createdAt,value
2023-02-23T00:02:09.878Z,82.59
2023-02-23T00:04:38.375Z,82.14
2023-02-23T00:07:07.287Z,82.43
2023-02-23T00:09:36.153Z,83.01
2023-02-23T00:12:08.601Z,82.79
2023-02-23T00:14:38.871Z,83.00
2023-02-23T00:17:14.552Z,82.56
2023-02-23T00:19:44.234Z,82.51
2023-02-23T00:22:12.838Z,82.83
2023-02-23T00:24:43.274Z,82.97
2023-02-23T00:27:17.418Z,82.87
2023-02-23T00:29:49.191Z,82.77
2023-02-23T00:32:20.647Z,83.04
2023-02-23T00:34:50.427Z,82.90
2023-02-23T00:37:19.653Z,83.21
2023-02-23T00:39:47.773Z,83.50
2023-02-23T00:42:15.963Z,83.56
2023-02-23T00:44:44.160Z,83.98
2023-02-23T00:47:12.298Z,84.22
2023-02-23T00:49:44.863Z,84.62
2023-02-23T00:52:14.662Z,84.84
2023-02-23T00:54:43.275Z,85.17
2023-02-23T00:57:11.407Z,85.35
2023-02-23T00:59:39.669Z,85.57
2023-02-23T01:02:07.808Z,85.60
2023-02-23T01:04:35.956Z,85.68
2023-02-23T01:07:07.559Z,85.82
2023-02-23T01:09:35.666Z,86.05
2023-02-23T01:12:07.538Z,86.11
2023-02-23T01:14:37.919Z,86.23
2023-02-23T01:17:07.408Z,86.21
2023-02-23T01:19:35.831Z,86.08
2023-02-23T01:22:05.699Z,86.23
2023-02-23T01:24:33.910Z,86.50
2023-02-23T01:27:02.076Z,86.54
2023-02-23T01:29:30.349Z,86.73
2023-02-23T01:31:58.577Z,87.05
2023-02-23T01:34:26.943Z,86.92
2023-02-23T01:36:55.073Z,87.24
2023-02-23T01:39:24.607Z,87.14
2023-02-23T01:41:54.171Z,87.06
2023-02-23T01:45:23.733Z,87.03
2023-02-23T01:47:56.748Z,86.92
2023-02-23T01:50:28.473Z,86.82
2023-02-23T01:52:59.314Z,86.84
2023-02-23T01:55:30.008Z,86.91
2023-02-23T01:58:08.018Z,86.99
2023-02-23T02:00:37.617Z,86.80
2023-02-23T02:03:13.995Z,86.58
2023-02-23T02:05:43.219Z,86.38
2023-02-23T02:08:13.518Z,86.04
2023-02-23T02:10:46.617Z,86.04
2023-02-23T02:13:22.168Z,86.12
2023-02-23T02:16:31.222Z,86.27
2023-02-23T02:19:54.151Z,86.39
2023-02-23T02:22:48.158Z,86.41
2023-02-23T02:25:41.440Z,86.53
2023-02-23T02:28:43.293Z,86.62
2023-02-23T02:32:11.062Z,86.65
2023-02-23T02:35:38.057Z,86.39
2023-02-23T02:38:26.972Z,86.45
2023-02-23T02:41:06.830Z,86.56
2023-02-23T02:43:50.931Z,86.26
2023-02-23T02:46:26.234Z,86.02
2023-02-23T02:49:06.628Z,86.07
2023-02-23T02:51:43.418Z,86.09
2023-02-23T02:54:25.485Z,86.15
2023-02-23T02:57:00.557Z,86.02
2023-02-23T02:59:47.020Z,85.80
2023-02-23T03:02:37.788Z,85.83
2023-02-23T03:05:33.183Z,85.82
2023-02-23T03:08:32.010Z,85.75
2023-02-23T03:11:25.459Z,85.71
2023-02-23T03:14:28.809Z,85.74
2023-02-23T03:17:28.575Z,85.51
2023-02-23T03:20:22.782Z,85.56
2023-02-23T03:23:27.614Z,85.52
2023-02-23T03:26:25.630Z,85.22
2023-02-23T03:29:21.333Z,84.60
2023-02-23T03:32:14.971Z,83.77
2023-02-23T03:35:09.843Z,83.74
2023-02-23T03:38:04.620Z,83.83
2023-02-23T03:40:56.006Z,84.23
2023-02-23T03:43:51.160Z,83.78
2023-02-23T03:46:39.053Z,83.71
2023-02-23T03:49:29.826Z,83.79
2023-02-23T03:52:24.964Z,83.93
2023-02-23T03:55:17.982Z,83.20
2023-02-23T03:58:09.303Z,82.75
2023-02-23T04:01:04.945Z,82.40
2023-02-23T04:03:55.243Z,82.11
2023-02-23T04:06:47.585Z,82.15
2023-02-23T04:09:33.722Z,81.70
2023-02-23T04:12:28.016Z,81.24
2023-02-23T04:15:01.514Z,81.38
2023-02-23T04:17:36.602Z,81.24
2023-02-23T04:20:07.005Z,81.38
2023-02-23T04:22:35.873Z,81.43
2023-02-23T04:25:05.972Z,81.45
2023-02-23T04:27:34.153Z,81.30
2023-02-23T04:30:03.791Z,81.13
2023-02-23T04:32:34.091Z,81.15
2023-02-23T04:35:02.320Z,81.14
2023-02-23T04:37:30.489Z,81.00
2023-02-23T04:39:58.594Z,80.04
2023-02-23T04:42:26.745Z,80.48
2023-02-23T04:44:54.869Z,80.44
2023-02-23T04:47:23.512Z,80.32
2023-02-23T04:49:53.879Z,79.38
2023-02-23T04:52:22.025Z,79.55
2023-02-23T04:54:50.186Z,79.92
2023-02-23T04:57:18.403Z,80.26
2023-02-23T04:59:46.515Z,80.60
2023-02-23T05:02:14.785Z,80.41
2023-02-23T05:04:42.951Z,80.29
2023-02-23T05:07:12.608Z,80.39
2023-02-23T05:09:41.370Z,79.61
2023-02-23T05:12:09.870Z,78.88
2023-02-23T05:14:38.698Z,79.54
2023-02-23T05:17:08.595Z,80.32
2023-02-23T05:19:37.703Z,80.63
2023-02-23T05:22:06.417Z,80.27
2023-02-23T05:24:36.662Z,80.78
2023-02-23T05:27:04.927Z,81.40
2023-02-23T05:29:33.024Z,81.96
2023-02-23T05:32:01.307Z,82.61
2023-02-23T05:34:29.834Z,82.95
2023-02-23T05:36:57.952Z,82.95
2023-02-23T05:39:26.070Z,83.46
2023-02-23T05:41:55.535Z,83.90
2023-02-23T05:44:23.711Z,83.75
2023-02-23T05:46:51.791Z,83.56
2023-02-23T05:49:20.015Z,83.77
2023-02-23T05:51:48.293Z,83.10
2023-02-23T05:54:16.569Z,82.76
2023-02-23T05:56:44.887Z,83.08
2023-02-23T05:59:14.403Z,83.68
2023-02-23T06:01:42.560Z,83.94
2023-02-23T06:04:10.748Z,84.39
2023-02-23T06:06:38.947Z,84.08
2023-02-23T06:09:07.248Z,83.73
2023-02-23T06:11:35.440Z,83.70
2023-02-23T06:14:03.612Z,83.82
2023-02-23T06:16:33.202Z,83.83
2023-02-23T06:19:01.375Z,84.16
2023-02-23T06:21:29.472Z,84.59
2023-02-23T06:24:00.708Z,83.91
2023-02-23T06:26:29.618Z,83.32
2023-02-23T06:28:57.747Z,82.72
2023-02-23T06:31:25.934Z,83.01
2023-02-23T06:33:55.397Z,83.56
2023-02-23T06:36:23.568Z,83.71
2023-02-23T06:38:51.650Z,84.05
2023-02-23T06:41:20.120Z,83.15
2023-02-23T06:43:48.406Z,83.38
2023-02-23T06:46:16.540Z,83.60
2023-02-23T06:48:44.744Z,83.75
2023-02-23T06:51:14.216Z,83.55
2023-02-23T06:53:42.343Z,82.16
2023-02-23T06:56:12.435Z,82.15
2023-02-23T06:58:40.670Z,82.79
2023-02-23T07:01:09.902Z,83.14
2023-02-23T07:03:38.014Z,83.41
2023-02-23T07:06:06.831Z,83.47
2023-02-23T07:08:36.884Z,82.99
2023-02-23T07:11:09.823Z,82.61
2023-02-23T07:13:38.268Z,81.96
2023-02-23T07:16:07.729Z,81.82
2023-02-23T07:18:36.190Z,81.37
2023-02-23T07:21:04.381Z,80.19
2023-02-23T07:23:33.086Z,80.16
2023-02-23T07:26:02.573Z,80.46
2023-02-23T07:28:30.698Z,80.76
2023-02-23T07:30:59.729Z,80.23
2023-02-23T07:33:27.920Z,80.25
2023-02-23T07:35:56.027Z,79.69
2023-02-23T07:38:24.202Z,79.38
2023-02-23T07:40:52.416Z,79.08
2023-02-23T07:43:22.747Z,78.78
2023-02-23T07:45:51.729Z,78.60
2023-02-23T07:48:20.266Z,78.34
2023-02-23T07:50:48.947Z,77.81
2023-02-23T07:53:17.146Z,77.34
2023-02-23T07:55:45.658Z,76.57
2023-02-23T07:58:14.232Z,76.83
2023-02-23T08:00:44.051Z,76.93
2023-02-23T08:03:12.457Z,77.48
2023-02-23T08:05:41.082Z,77.07
2023-02-23T08:08:09.217Z,75.79
2023-02-23T08:10:38.081Z,75.58
2023-02-23T08:13:07.096Z,75.81
2023-02-23T08:15:35.271Z,75.72
2023-02-23T08:18:05.187Z,75.77
2023-02-23T08:20:33.483Z,74.60
2023-02-23T08:23:01.619Z,74.94
2023-02-23T08:25:29.761Z,75.15
2023-02-23T08:27:59.621Z,74.97
2023-02-23T08:30:28.046Z,74.67
2023-02-23T08:32:56.212Z,74.75
2023-02-23T08:35:25.798Z,74.06
2023-02-23T08:37:54.014Z,73.45
2023-02-23T08:40:22.140Z,73.36
2023-02-23T08:42:52.047Z,72.90
2023-02-23T08:45:21.452Z,72.20
2023-02-23T08:47:49.586Z,71.71
2023-02-23T08:50:17.932Z,71.88
2023-02-23T08:52:47.390Z,71.50
2023-02-23T08:55:16.663Z,71.70
2023-02-23T08:57:44.786Z,71.59
2023-02-23T09:00:16.604Z,71.64
2023-02-23T09:02:48.055Z,70.57
2023-02-23T09:05:17.555Z,70.10
2023-02-23T09:07:49.070Z,70.38
2023-02-23T09:10:24.005Z,70.11
2023-02-23T09:12:52.880Z,69.59
2023-02-23T09:15:22.027Z,68.54
2023-02-23T09:17:50.215Z,67.72
2023-02-23T09:20:19.453Z,67.98
2023-02-23T09:22:49.592Z,67.27
2023-02-23T09:25:22.452Z,66.56
2023-02-23T09:27:51.910Z,66.19
2023-02-23T09:30:22.280Z,66.14
2023-02-23T09:32:52.201Z,64.54
2023-02-23T09:35:24.835Z,64.50
2023-02-23T09:37:57.166Z,64.01
2023-02-23T09:40:30.037Z,64.41
2023-02-23T09:43:06.973Z,64.53
2023-02-23T09:45:41.935Z,63.58
2023-02-23T09:48:18.897Z,63.47
2023-02-23T09:50:52.086Z,64.10
2023-02-23T09:53:34.654Z,64.22
2023-02-23T09:56:11.632Z,64.05
2023-02-23T09:58:41.036Z,63.96
2023-02-23T10:01:50.520Z,64.13
2023-02-23T10:04:24.942Z,64.13
2023-02-23T10:07:01.717Z,64.82
2023-02-23T10:09:52.113Z,65.22
2023-02-23T10:12:31.333Z,64.20
2023-02-23T10:15:15.347Z,64.76
2023-02-23T10:17:56.557Z,64.15
2023-02-23T10:20:37.198Z,63.71
2023-02-23T10:23:09.932Z,64.70
2023-02-23T10:25:46.506Z,64.72
2023-02-23T10:28:20.190Z,64.61
2023-02-23T10:30:50.614Z,64.52
2023-02-23T10:33:28.209Z,63.98
2023-02-23T10:36:12.817Z,63.03
2023-02-23T10:38:41.682Z,63.52
2023-02-23T10:41:14.824Z,63.02
2023-02-23T10:43:43.570Z,63.61
2023-02-23T10:46:22.094Z,63.45
2023-02-23T10:48:53.587Z,63.14
2023-02-23T10:51:29.532Z,62.79
2023-02-23T10:54:07.513Z,63.03
2023-02-23T10:56:47.871Z,62.14
2023-02-23T10:59:22.028Z,60.89
2023-02-23T11:02:01.319Z,60.43
2023-02-23T11:04:34.689Z,60.07
2023-02-23T11:07:16.678Z,60.85
2023-02-23T11:09:48.146Z,60.84
2023-02-23T11:12:25.543Z,59.22
2023-02-23T11:14:57.600Z,58.81
2023-02-23T11:17:34.425Z,59.91
2023-02-23T11:20:08.578Z,59.73
2023-02-23T11:22:42.031Z,59.88
2023-02-23T11:25:22.728Z,59.88
2023-02-23T11:27:53.877Z,60.44
2023-02-23T11:30:25.213Z,60.82
2023-02-23T11:32:57.410Z,60.35
2023-02-23T11:35:33.131Z,60.12
2023-02-23T11:38:15.189Z,60.08
2023-02-23T11:40:43.466Z,59.46
2023-02-23T11:43:16.975Z,59.68
2023-02-23T11:45:49.759Z,59.57
2023-02-23T11:48:24.586Z,59.51
2023-02-23T11:50:55.216Z,58.60
2023-02-23T11:53:31.827Z,59.00
2023-02-23T11:56:08.082Z,58.46
2023-02-23T11:58:42.236Z,59.48
2023-02-23T12:01:13.615Z,59.43
2023-02-23T12:03:48.624Z,59.44
2023-02-23T12:06:30.527Z,59.34
2023-02-23T12:09:12.975Z,58.87
2023-02-23T12:11:48.752Z,58.88
2023-02-23T12:14:31.681Z,58.45
2023-02-23T12:17:09.769Z,59.34
2023-02-23T12:19:45.165Z,59.57
2023-02-23T12:22:19.866Z,59.06
2023-02-23T12:24:57.762Z,57.76
2023-02-23T12:27:36.013Z,58.60
2023-02-23T12:30:18.278Z,58.63
2023-02-23T12:32:53.778Z,58.89
2023-02-23T12:35:31.199Z,58.74
2023-02-23T12:38:09.853Z,58.25
2023-02-23T12:40:42.249Z,58.77
2023-02-23T12:43:18.689Z,58.84
2023-02-23T12:45:55.701Z,58.77
2023-02-23T12:48:41.131Z,59.42
2023-02-23T12:51:25.032Z,60.27
2023-02-23T12:53:53.546Z,60.34
2023-02-23T12:56:42.033Z,60.96
2023-02-23T12:59:44.335Z,61.22
2023-02-23T13:02:25.615Z,60.52
2023-02-23T13:05:17.296Z,61.36
2023-02-23T13:08:12.455Z,61.97
2023-02-23T13:10:55.333Z,61.57
2023-02-23T13:13:40.359Z,61.95
2023-02-23T13:16:20.951Z,62.77
2023-02-23T13:19:05.716Z,62.91
2023-02-23T13:21:40.462Z,63.28
2023-02-23T13:24:18.973Z,63.08
2023-02-23T13:26:56.518Z,63.42
2023-02-23T13:29:38.851Z,64.36
2023-02-23T13:32:13.822Z,64.48
2023-02-23T13:34:46.821Z,64.86
2023-02-23T13:37:21.387Z,64.95
2023-02-23T13:40:01.425Z,64.76
2023-02-23T13:42:42.737Z,65.35
2023-02-23T13:45:41.931Z,65.36
2023-02-23T13:48:30.417Z,65.09
2023-02-23T13:51:09.499Z,65.09
2023-02-23T13:53:44.205Z,65.55
2023-02-23T13:56:20.021Z,65.74
2023-02-23T13:58:53.336Z,65.99
2023-02-23T14:01:27.568Z,65.38
2023-02-23T14:04:00.662Z,65.22
2023-02-23T14:06:34.274Z,65.58
2023-02-23T14:09:12.443Z,65.96
2023-02-23T14:11:48.598Z,65.81
2023-02-23T14:14:45.938Z,65.55
2023-02-23T14:17:42.358Z,65.26
2023-02-23T14:20:29.839Z,65.67
2023-02-23T14:23:37.626Z,66.51
2023-02-23T14:26:36.084Z,66.94
2023-02-23T14:29:29.235Z,67.17
2023-02-23T14:32:24.987Z,67.12
2023-02-23T14:34:56.942Z,67.05
2023-02-23T14:37:35.161Z,67.27
2023-02-23T14:40:14.883Z,67.49
2023-02-23T14:42:50.191Z,67.71
2023-02-23T14:45:27.313Z,67.90
2023-02-23T14:48:02.558Z,67.96
2023-02-23T14:50:34.484Z,67.80
2023-02-23T14:53:04.958Z,67.50
2023-02-23T14:55:36.684Z,67.45
2023-02-23T14:58:22.136Z,67.89
2023-02-23T15:00:51.977Z,68.39
2023-02-23T15:03:20.818Z,69.18
2023-02-23T15:05:54.119Z,69.69
2023-02-23T15:08:25.246Z,70.59
2023-02-23T15:11:04.529Z,70.55
2023-02-23T15:13:39.786Z,71.01
2023-02-23T15:16:14.256Z,71.21
2023-02-23T15:18:45.740Z,71.78
2023-02-23T15:21:18.747Z,72.06
2023-02-23T15:23:50.576Z,72.60
2023-02-23T15:26:31.808Z,73.17
2023-02-23T15:29:13.443Z,73.50
2023-02-23T15:31:50.134Z,73.68
2023-02-23T15:34:21.542Z,74.03
2023-02-23T15:36:55.475Z,74.26
2023-02-23T15:39:37.352Z,74.55
2023-02-23T15:42:09.442Z,74.24
2023-02-23T15:44:44.319Z,74.87
2023-02-23T15:47:28.373Z,74.94
2023-02-23T15:50:14.288Z,76.30
2023-02-23T15:52:51.030Z,75.83
2023-02-23T15:55:26.946Z,76.25
2023-02-23T15:57:59.780Z,76.20
2023-02-23T16:00:34.824Z,76.37
2023-02-23T16:03:07.398Z,76.82
2023-02-23T16:05:46.605Z,77.52
2023-02-23T16:08:23.745Z,77.90
2023-02-23T16:10:59.173Z,78.09
2023-02-23T16:13:29.101Z,78.23
2023-02-23T16:15:57.911Z,79.20
2023-02-23T16:18:39.500Z,78.69
2023-02-23T16:21:12.918Z,78.59
2023-02-23T16:23:45.547Z,78.65
2023-02-23T16:26:24.181Z,79.26
2023-02-23T16:28:59.661Z,79.82
2023-02-23T16:31:44.022Z,79.18
2023-02-23T16:34:26.383Z,79.94
2023-02-23T16:36:59.853Z,80.58
2023-02-23T16:39:31.699Z,80.24
2023-02-23T16:42:00.935Z,80.38
2023-02-23T16:44:42.887Z,79.68
2023-02-23T16:47:36.195Z,80.41
2023-02-23T16:50:19.753Z,80.65
2023-02-23T16:52:52.862Z,80.71
2023-02-23T16:55:25.625Z,80.27
2023-02-23T16:57:57.642Z,80.31
2023-02-23T17:00:31.290Z,80.78
2023-02-23T17:03:01.455Z,80.72
2023-02-23T17:05:30.525Z,80.25
2023-02-23T17:07:59.287Z,80.00
2023-02-23T17:10:32.246Z,80.37
2023-02-23T17:13:04.961Z,81.02
2023-02-23T17:15:38.815Z,81.21
2023-02-23T17:18:07.438Z,80.71
2023-02-23T17:20:35.716Z,80.48
2023-02-23T17:23:04.673Z,81.02
2023-02-23T17:25:33.895Z,81.27
2023-02-23T17:28:03.560Z,81.71
2023-02-23T17:30:35.323Z,81.21
2023-02-23T17:33:04.798Z,80.96
2023-02-23T17:35:37.245Z,81.19
2023-02-23T17:38:07.552Z,80.37
2023-02-23T17:40:37.858Z,80.86
2023-02-23T17:43:08.535Z,81.50
2023-02-23T17:45:38.274Z,82.03
2023-02-23T17:48:07.058Z,82.13
2023-02-23T17:50:35.209Z,80.34
2023-02-23T17:53:03.319Z,80.63
2023-02-23T17:55:31.420Z,81.03
2023-02-23T17:57:59.540Z,81.00
2023-02-23T18:00:28.543Z,81.29
2023-02-23T18:02:58.087Z,81.35
2023-02-23T18:05:26.185Z,82.03
2023-02-23T18:07:54.349Z,81.37
2023-02-23T18:10:25.256Z,81.41
2023-02-23T18:12:53.598Z,81.29
2023-02-23T18:15:22.425Z,81.60
2023-02-23T18:17:54.437Z,81.08
2023-02-23T18:20:24.040Z,80.85
2023-02-23T18:22:52.138Z,80.99
2023-02-23T18:25:27.355Z,81.37
2023-02-23T18:27:58.529Z,81.86
2023-02-23T18:30:27.741Z,82.06
2023-02-23T18:33:00.665Z,82.14
2023-02-23T18:35:35.923Z,81.71
2023-02-23T18:38:04.244Z,81.38
2023-02-23T18:40:32.461Z,79.51
2023-02-23T18:43:00.581Z,80.26
2023-02-23T18:45:29.955Z,80.80
2023-02-23T18:47:58.308Z,80.23
2023-02-23T18:50:27.546Z,79.82
2023-02-23T18:52:58.847Z,80.12
2023-02-23T18:55:26.987Z,80.59
2023-02-23T18:57:55.097Z,80.84
2023-02-23T19:00:24.509Z,80.53
2023-02-23T19:02:53.676Z,80.97
2023-02-23T19:05:22.795Z,80.07
2023-02-23T19:07:51.126Z,80.88
2023-02-23T19:10:20.781Z,80.94
2023-02-23T19:12:48.895Z,82.18
2023-02-23T19:15:17.286Z,82.69
2023-02-23T19:17:47.212Z,83.55
2023-02-23T19:20:15.936Z,83.11
2023-02-23T19:22:45.412Z,83.52
2023-02-23T19:25:14.988Z,83.80
2023-02-23T19:27:44.864Z,83.56
2023-02-23T19:30:14.851Z,83.50
2023-02-23T19:32:44.276Z,84.12
2023-02-23T19:35:17.446Z,83.98
2023-02-23T19:37:50.658Z,83.71
2023-02-23T19:40:22.637Z,84.00
2023-02-23T19:42:53.113Z,83.54
2023-02-23T19:45:21.820Z,83.18
2023-02-23T19:47:53.438Z,84.26
2023-02-23T19:50:22.647Z,83.46
2023-02-23T19:52:51.044Z,84.10
2023-02-23T19:55:20.278Z,84.80
2023-02-23T19:57:48.540Z,85.29
2023-02-23T20:00:19.290Z,84.97
2023-02-23T20:02:54.693Z,85.49
2023-02-23T20:05:25.587Z,85.04
2023-02-23T20:07:54.539Z,84.09
2023-02-23T20:10:25.738Z,84.49
2023-02-23T20:12:54.188Z,83.93
2023-02-23T20:15:23.854Z,84.57
2023-02-23T20:17:52.253Z,84.89
2023-02-23T20:20:25.383Z,83.79
2023-02-23T20:22:54.975Z,83.86
2023-02-23T20:25:23.820Z,84.81
2023-02-23T20:27:52.061Z,84.66
2023-02-23T20:30:21.044Z,83.45
2023-02-23T20:32:50.686Z,84.23
2023-02-23T20:35:20.522Z,84.69
2023-02-23T20:37:48.699Z,84.17
2023-02-23T20:40:19.648Z,83.84
2023-02-23T20:42:50.695Z,84.24
2023-02-23T20:45:22.594Z,84.62
2023-02-23T20:47:53.420Z,85.05
2023-02-23T20:50:25.365Z,85.71
2023-02-23T20:52:53.480Z,85.98
2023-02-23T20:55:26.285Z,85.20
2023-02-23T20:57:55.560Z,84.85
2023-02-23T21:00:32.331Z,85.40
2023-02-23T21:03:05.013Z,85.90
2023-02-23T21:05:40.240Z,83.69
2023-02-23T21:08:10.637Z,83.47
2023-02-23T21:10:40.448Z,83.50
2023-02-23T21:13:11.338Z,84.12
2023-02-23T21:15:41.473Z,84.95
2023-02-23T21:18:11.616Z,84.92
2023-02-23T21:20:40.951Z,84.27
2023-02-23T21:23:09.134Z,84.30
2023-02-23T21:25:38.405Z,85.18
2023-02-23T21:28:07.136Z,85.70
2023-02-23T21:30:35.250Z,86.07
2023-02-23T21:33:03.799Z,86.34
2023-02-23T21:35:35.094Z,85.25
2023-02-23T21:38:03.207Z,84.13
2023-02-23T21:40:31.600Z,83.84
2023-02-23T21:43:01.130Z,83.78
2023-02-23T21:45:29.319Z,83.95
2023-02-23T21:47:57.415Z,84.13
2023-02-23T21:50:25.558Z,84.37
2023-02-23T21:52:58.111Z,85.12
2023-02-23T21:55:26.288Z,84.69
2023-02-23T21:57:54.827Z,84.61
2023-02-23T22:00:24.053Z,84.97
2023-02-23T22:02:52.879Z,84.98
2023-02-23T22:05:21.662Z,84.51
2023-02-23T22:07:51.893Z,84.88
2023-02-23T22:10:24.241Z,84.74
2023-02-23T22:12:56.786Z,85.01
2023-02-23T22:15:28.142Z,85.01
2023-02-23T22:17:57.090Z,85.23
2023-02-23T22:20:26.210Z,85.27
2023-02-23T22:22:54.411Z,85.20
2023-02-23T22:25:25.953Z,85.08
2023-02-23T22:27:54.102Z,84.29
2023-02-23T22:30:22.968Z,85.29
2023-02-23T22:32:51.525Z,86.41
2023-02-23T22:35:19.979Z,86.49
2023-02-23T22:37:48.676Z,86.37
2023-02-23T22:40:17.182Z,86.58
2023-02-23T22:42:50.912Z,87.40
2023-02-23T22:45:20.276Z,88.24
2023-02-23T22:47:48.408Z,88.14
2023-02-23T22:50:18.991Z,88.38
2023-02-23T22:52:47.660Z,88.65
2023-02-23T22:55:16.076Z,88.21
2023-02-23T22:57:44.209Z,88.24
2023-02-23T23:00:19.265Z,88.36
2023-02-23T23:02:47.374Z,88.63
2023-02-23T23:05:16.270Z,89.06
2023-02-23T23:07:46.676Z,89.65
2023-02-23T23:10:16.275Z,89.64
2023-02-23T23:12:44.925Z,89.96
2023-02-23T23:15:17.235Z,90.02
2023-02-23T23:17:48.364Z,89.82
2023-02-23T23:20:22.712Z,89.23
2023-02-23T23:22:50.820Z,89.33
2023-02-23T23:25:22.748Z,89.52
2023-02-23T23:27:55.440Z,89.94
2023-02-23T23:30:29.072Z,90.01
2023-02-23T23:32:57.648Z,89.52
2023-02-23T23:35:26.610Z,89.68
2023-02-23T23:37:54.668Z,89.17
2023-02-23T23:40:24.875Z,88.39
2023-02-23T23:42:55.738Z,88.11
2023-02-23T23:45:25.630Z,88.41
2023-02-23T23:47:53.995Z,88.30
2023-02-23T23:50:26.538Z,87.90
2023-02-23T23:52:55.359Z,86.87
2023-02-23T23:55:23.566Z,86.62
2023-02-23T23:57:52.098Z,86.06
